sensor_id;sensor_type;location;lat;lon;timestamp;P1;durP1;ratioP1;P2;durP2;ratioP2
23838;SDS011;12100;44.384;20.272;2022-11-06T00:00:40;42.35;;;24.98;;
23838;SDS011;12100;44.384;20.272;2022-11-06T00:03:06;39.17;;;24.23;;
23838;SDS011;12100;44.384;20.272;2022-11-06T00:05:33;37.72;;;21.75;;
23838;SDS011;12100;44.384;20.272;2022-11-06T00:08:28;41.10;;;22.80;;
23838;SDS011;12100;44.384;20.272;2022-11-06T00:11:00;45.03;;;23.45;;
23838;SDS011;12100;44.384;20.272;2022-11-06T00:13:31;41.42;;;22.50;;
23838;SDS011;12100;44.384;20.272;2022-11-06T00:16:00;40.10;;;21.85;;
23838;SDS011;12100;44.384;20.272;2022-11-06T00:18:27;37.85;;;21.60;;
23838;SDS011;12100;44.384;20.272;2022-11-06T00:20:53;36.67;;;21.27;;
23838;SDS011;12100;44.384;20.272;2022-11-06T00:23:18;46.05;;;24.20;;
23838;SDS011;12100;44.384;20.272;2022-11-06T00:25:44;36.60;;;21.20;;
23838;SDS011;12100;44.384;20.272;2022-11-06T00:28:10;34.42;;;21.55;;
23838;SDS011;12100;44.384;20.272;2022-11-06T00:30:36;44.33;;;24.33;;
23838;SDS011;12100;44.384;20.272;2022-11-06T00:33:02;39.67;;;23.05;;
23838;SDS011;12100;44.384;20.272;2022-11-06T00:35:27;35.53;;;20.50;;
23838;SDS011;12100;44.384;20.272;2022-11-06T00:37:53;36.30;;;20.65;;
23838;SDS011;12100;44.384;20.272;2022-11-06T00:40:20;41.10;;;21.42;;
23838;SDS011;12100;44.384;20.272;2022-11-06T00:42:45;38.83;;;22.00;;
23838;SDS011;12100;44.384;20.272;2022-11-06T00:45:11;33.97;;;20.55;;
23838;SDS011;12100;44.384;20.272;2022-11-06T00:47:37;35.03;;;20.52;;
23838;SDS011;12100;44.384;20.272;2022-11-06T00:50:03;34.35;;;19.88;;
23838;SDS011;12100;44.384;20.272;2022-11-06T00:52:29;33.78;;;21.17;;
23838;SDS011;12100;44.384;20.272;2022-11-06T00:54:54;30.65;;;19.90;;
23838;SDS011;12100;44.384;20.272;2022-11-06T00:57:20;30.85;;;19.02;;
23838;SDS011;12100;44.384;20.272;2022-11-06T00:59:46;37.17;;;20.42;;
23838;SDS011;12100;44.384;20.272;2022-11-06T01:02:12;28.33;;;18.67;;
23838;SDS011;12100;44.384;20.272;2022-11-06T01:04:38;32.17;;;18.40;;
23838;SDS011;12100;44.384;20.272;2022-11-06T01:07:03;34.95;;;20.33;;
23838;SDS011;12100;44.384;20.272;2022-11-06T01:09:29;35.00;;;19.52;;
23838;SDS011;12100;44.384;20.272;2022-11-06T01:11:56;30.60;;;19.65;;
23838;SDS011;12100;44.384;20.272;2022-11-06T01:14:23;30.00;;;18.23;;
23838;SDS011;12100;44.384;20.272;2022-11-06T01:16:50;30.38;;;18.75;;
23838;SDS011;12100;44.384;20.272;2022-11-06T01:19:17;28.80;;;17.52;;
23838;SDS011;12100;44.384;20.272;2022-11-06T01:21:45;29.15;;;18.73;;
23838;SDS011;12100;44.384;20.272;2022-11-06T01:24:13;26.20;;;18.13;;
23838;SDS011;12100;44.384;20.272;2022-11-06T01:26:42;34.58;;;19.40;;
23838;SDS011;12100;44.384;20.272;2022-11-06T01:29:09;30.48;;;18.65;;
23838;SDS011;12100;44.384;20.272;2022-11-06T01:31:37;33.00;;;19.05;;
23838;SDS011;12100;44.384;20.272;2022-11-06T01:34:03;39.33;;;20.67;;
23838;SDS011;12100;44.384;20.272;2022-11-06T01:36:30;39.63;;;21.90;;
23838;SDS011;12100;44.384;20.272;2022-11-06T01:38:57;32.78;;;19.10;;
23838;SDS011;12100;44.384;20.272;2022-11-06T01:41:29;29.15;;;18.77;;
23838;SDS011;12100;44.384;20.272;2022-11-06T01:43:59;33.17;;;18.67;;
23838;SDS011;12100;44.384;20.272;2022-11-06T01:46:28;35.67;;;19.98;;
23838;SDS011;12100;44.384;20.272;2022-11-06T01:49:30;37.97;;;20.08;;
23838;SDS011;12100;44.384;20.272;2022-11-06T01:52:21;30.60;;;18.13;;
23838;SDS011;12100;44.384;20.272;2022-11-06T01:54:40;29.70;;;17.05;;
23838;SDS011;12100;44.384;20.272;2022-11-06T01:57:08;33.17;;;18.38;;
23838;SDS011;12100;44.384;20.272;2022-11-06T01:59:38;27.08;;;17.38;;
23838;SDS011;12100;44.384;20.272;2022-11-06T02:02:09;33.75;;;18.80;;
23838;SDS011;12100;44.384;20.272;2022-11-06T02:04:36;31.08;;;16.83;;
23838;SDS011;12100;44.384;20.272;2022-11-06T02:07:04;32.05;;;20.00;;
23838;SDS011;12100;44.384;20.272;2022-11-06T02:09:31;29.77;;;17.23;;
23838;SDS011;12100;44.384;20.272;2022-11-06T02:12:04;28.65;;;17.50;;
23838;SDS011;12100;44.384;20.272;2022-11-06T02:20:43;29.63;;;16.50;;
23838;SDS011;12100;44.384;20.272;2022-11-06T02:29:11;31.13;;;16.23;;
23838;SDS011;12100;44.384;20.272;2022-11-06T02:31:43;31.42;;;18.60;;
23838;SDS011;12100;44.384;20.272;2022-11-06T02:34:12;32.72;;;17.48;;
23838;SDS011;12100;44.384;20.272;2022-11-06T02:36:45;29.83;;;16.42;;
23838;SDS011;12100;44.384;20.272;2022-11-06T02:39:15;33.55;;;17.17;;
23838;SDS011;12100;44.384;20.272;2022-11-06T02:41:43;29.27;;;16.95;;
23838;SDS011;12100;44.384;20.272;2022-11-06T02:44:12;24.92;;;15.80;;
23838;SDS011;12100;44.384;20.272;2022-11-06T02:46:44;28.80;;;17.13;;
23838;SDS011;12100;44.384;20.272;2022-11-06T02:52:12;27.33;;;16.20;;
23838;SDS011;12100;44.384;20.272;2022-11-06T02:54:45;25.48;;;15.85;;
23838;SDS011;12100;44.384;20.272;2022-11-06T02:57:16;22.40;;;14.00;;
23838;SDS011;12100;44.384;20.272;2022-11-06T03:02:34;23.02;;;14.52;;
23838;SDS011;12100;44.384;20.272;2022-11-06T03:05:07;27.15;;;16.90;;
23838;SDS011;12100;44.384;20.272;2022-11-06T03:08:01;24.35;;;15.60;;
23838;SDS011;12100;44.384;20.272;2022-11-06T03:10:45;24.67;;;14.73;;
23838;SDS011;12100;44.384;20.272;2022-11-06T03:13:45;24.08;;;14.52;;
23838;SDS011;12100;44.384;20.272;2022-11-06T03:18:56;24.83;;;14.70;;
23838;SDS011;12100;44.384;20.272;2022-11-06T03:21:29;26.48;;;15.00;;
23838;SDS011;12100;44.384;20.272;2022-11-06T03:24:18;23.67;;;14.85;;
23838;SDS011;12100;44.384;20.272;2022-11-06T03:26:55;26.40;;;14.57;;
23838;SDS011;12100;44.384;20.272;2022-11-06T03:32:08;26.40;;;15.65;;
23838;SDS011;12100;44.384;20.272;2022-11-06T03:34:41;23.15;;;14.23;;
23838;SDS011;12100;44.384;20.272;2022-11-06T03:37:14;23.85;;;14.27;;
23838;SDS011;12100;44.384;20.272;2022-11-06T03:39:50;21.70;;;13.48;;
23838;SDS011;12100;44.384;20.272;2022-11-06T03:42:26;23.88;;;14.15;;
23838;SDS011;12100;44.384;20.272;2022-11-06T03:44:59;25.88;;;14.02;;
23838;SDS011;12100;44.384;20.272;2022-11-06T03:47:37;27.58;;;15.93;;
23838;SDS011;12100;44.384;20.272;2022-11-06T03:50:15;27.30;;;15.45;;
23838;SDS011;12100;44.384;20.272;2022-11-06T03:53:11;25.67;;;13.45;;
23838;SDS011;12100;44.384;20.272;2022-11-06T03:55:48;27.23;;;15.43;;
23838;SDS011;12100;44.384;20.272;2022-11-06T03:58:25;28.73;;;15.30;;
23838;SDS011;12100;44.384;20.272;2022-11-06T04:00:56;23.75;;;13.82;;
23838;SDS011;12100;44.384;20.272;2022-11-06T04:03:38;23.35;;;14.48;;
23838;SDS011;12100;44.384;20.272;2022-11-06T04:06:14;23.10;;;14.93;;
23838;SDS011;12100;44.384;20.272;2022-11-06T04:08:47;22.55;;;13.95;;
23838;SDS011;12100;44.384;20.272;2022-11-06T04:11:35;25.75;;;16.30;;
23838;SDS011;12100;44.384;20.272;2022-11-06T04:14:23;27.05;;;15.38;;
23838;SDS011;12100;44.384;20.272;2022-11-06T04:16:52;23.02;;;14.15;;
23838;SDS011;12100;44.384;20.272;2022-11-06T04:19:23;30.13;;;15.77;;
23838;SDS011;12100;44.384;20.272;2022-11-06T04:22:07;26.73;;;15.35;;
23838;SDS011;12100;44.384;20.272;2022-11-06T04:30:32;25.60;;;14.48;;
23838;SDS011;12100;44.384;20.272;2022-11-06T04:33:19;24.55;;;14.43;;
23838;SDS011;12100;44.384;20.272;2022-11-06T04:43:49;24.23;;;15.90;;
23838;SDS011;12100;44.384;20.272;2022-11-06T04:46:26;27.27;;;15.63;;
23838;SDS011;12100;44.384;20.272;2022-11-06T04:49:06;27.27;;;15.48;;
23838;SDS011;12100;44.384;20.272;2022-11-06T04:51:34;27.05;;;15.23;;
23838;SDS011;12100;44.384;20.272;2022-11-06T04:54:03;29.00;;;15.80;;
23838;SDS011;12100;44.384;20.272;2022-11-06T04:56:32;25.45;;;15.82;;
23838;SDS011;12100;44.384;20.272;2022-11-06T04:58:59;24.98;;;14.65;;
23838;SDS011;12100;44.384;20.272;2022-11-06T05:01:25;27.80;;;16.52;;
23838;SDS011;12100;44.384;20.272;2022-11-06T05:03:51;30.95;;;16.75;;
23838;SDS011;12100;44.384;20.272;2022-11-06T05:06:16;24.00;;;14.43;;
23838;SDS011;12100;44.384;20.272;2022-11-06T05:08:42;25.40;;;15.55;;
23838;SDS011;12100;44.384;20.272;2022-11-06T05:11:08;27.23;;;14.95;;
23838;SDS011;12100;44.384;20.272;2022-11-06T05:13:34;24.67;;;14.27;;
23838;SDS011;12100;44.384;20.272;2022-11-06T05:16:01;28.05;;;15.80;;
23838;SDS011;12100;44.384;20.272;2022-11-06T05:18:27;26.23;;;15.38;;
23838;SDS011;12100;44.384;20.272;2022-11-06T05:20:52;25.63;;;15.60;;
23838;SDS011;12100;44.384;20.272;2022-11-06T05:23:39;25.60;;;15.13;;
23838;SDS011;12100;44.384;20.272;2022-11-06T05:26:05;23.17;;;14.77;;
23838;SDS011;12100;44.384;20.272;2022-11-06T05:28:31;25.95;;;14.55;;
23838;SDS011;12100;44.384;20.272;2022-11-06T05:30:57;24.70;;;14.52;;
23838;SDS011;12100;44.384;20.272;2022-11-06T05:33:23;24.70;;;15.07;;
23838;SDS011;12100;44.384;20.272;2022-11-06T05:35:49;27.98;;;14.80;;
23838;SDS011;12100;44.384;20.272;2022-11-06T05:38:16;23.67;;;14.05;;
23838;SDS011;12100;44.384;20.272;2022-11-06T05:40:41;24.25;;;14.82;;
23838;SDS011;12100;44.384;20.272;2022-11-06T05:43:07;28.52;;;15.38;;
23838;SDS011;12100;44.384;20.272;2022-11-06T05:45:33;27.60;;;16.00;;
23838;SDS011;12100;44.384;20.272;2022-11-06T05:47:59;27.60;;;15.00;;
23838;SDS011;12100;44.384;20.272;2022-11-06T05:50:24;27.13;;;14.55;;
23838;SDS011;12100;44.384;20.272;2022-11-06T05:52:50;26.35;;;13.85;;
23838;SDS011;12100;44.384;20.272;2022-11-06T05:55:16;26.38;;;14.80;;
23838;SDS011;12100;44.384;20.272;2022-11-06T05:57:42;25.55;;;14.60;;
23838;SDS011;12100;44.384;20.272;2022-11-06T06:00:08;24.10;;;13.82;;
23838;SDS011;12100;44.384;20.272;2022-11-06T06:02:35;22.50;;;14.27;;
23838;SDS011;12100;44.384;20.272;2022-11-06T06:05:02;22.15;;;13.57;;
23838;SDS011;12100;44.384;20.272;2022-11-06T06:07:28;24.88;;;14.48;;
23838;SDS011;12100;44.384;20.272;2022-11-06T06:09:54;20.10;;;12.85;;
23838;SDS011;12100;44.384;20.272;2022-11-06T06:12:20;22.75;;;14.10;;
23838;SDS011;12100;44.384;20.272;2022-11-06T06:14:48;23.63;;;15.00;;
23838;SDS011;12100;44.384;20.272;2022-11-06T06:17:13;22.20;;;13.38;;
23838;SDS011;12100;44.384;20.272;2022-11-06T06:19:39;25.65;;;15.18;;
23838;SDS011;12100;44.384;20.272;2022-11-06T06:22:05;23.67;;;14.70;;
23838;SDS011;12100;44.384;20.272;2022-11-06T06:24:31;23.58;;;13.63;;
23838;SDS011;12100;44.384;20.272;2022-11-06T06:26:56;23.65;;;14.70;;
23838;SDS011;12100;44.384;20.272;2022-11-06T06:29:22;21.33;;;13.73;;
23838;SDS011;12100;44.384;20.272;2022-11-06T06:31:48;22.35;;;13.70;;
23838;SDS011;12100;44.384;20.272;2022-11-06T06:34:14;21.80;;;13.65;;
23838;SDS011;12100;44.384;20.272;2022-11-06T06:36:39;22.48;;;13.82;;
23838;SDS011;12100;44.384;20.272;2022-11-06T06:39:05;22.52;;;14.05;;
23838;SDS011;12100;44.384;20.272;2022-11-06T06:41:31;25.45;;;14.75;;
23838;SDS011;12100;44.384;20.272;2022-11-06T06:43:57;22.25;;;13.82;;
23838;SDS011;12100;44.384;20.272;2022-11-06T06:46:23;24.48;;;14.10;;
23838;SDS011;12100;44.384;20.272;2022-11-06T06:48:49;23.08;;;14.18;;
23838;SDS011;12100;44.384;20.272;2022-11-06T06:51:15;23.00;;;14.13;;
23838;SDS011;12100;44.384;20.272;2022-11-06T06:53:40;19.75;;;13.27;;
23838;SDS011;12100;44.384;20.272;2022-11-06T06:56:06;30.80;;;18.88;;
23838;SDS011;12100;44.384;20.272;2022-11-06T06:58:32;29.85;;;19.95;;
23838;SDS011;12100;44.384;20.272;2022-11-06T07:01:02;27.42;;;20.80;;
23838;SDS011;12100;44.384;20.272;2022-11-06T07:03:29;21.00;;;15.65;;
23838;SDS011;12100;44.384;20.272;2022-11-06T07:05:56;23.70;;;15.68;;
23838;SDS011;12100;44.384;20.272;2022-11-06T07:08:23;23.13;;;15.00;;
23838;SDS011;12100;44.384;20.272;2022-11-06T07:10:50;21.73;;;13.65;;
23838;SDS011;12100;44.384;20.272;2022-11-06T07:13:15;22.90;;;15.63;;
23838;SDS011;12100;44.384;20.272;2022-11-06T07:15:41;25.23;;;15.65;;
23838;SDS011;12100;44.384;20.272;2022-11-06T07:18:07;20.08;;;14.25;;
23838;SDS011;12100;44.384;20.272;2022-11-06T07:20:33;21.48;;;14.25;;
23838;SDS011;12100;44.384;20.272;2022-11-06T07:23:08;17.35;;;13.05;;
23838;SDS011;12100;44.384;20.272;2022-11-06T07:25:34;19.80;;;13.52;;
23838;SDS011;12100;44.384;20.272;2022-11-06T07:28:00;23.60;;;14.35;;
23838;SDS011;12100;44.384;20.272;2022-11-06T07:30:30;22.27;;;13.95;;
23838;SDS011;12100;44.384;20.272;2022-11-06T07:32:58;19.65;;;12.73;;
23838;SDS011;12100;44.384;20.272;2022-11-06T07:35:25;17.48;;;12.68;;
23838;SDS011;12100;44.384;20.272;2022-11-06T07:37:50;16.98;;;11.77;;
23838;SDS011;12100;44.384;20.272;2022-11-06T07:40:16;16.55;;;11.88;;
23838;SDS011;12100;44.384;20.272;2022-11-06T07:42:42;17.35;;;13.63;;
23838;SDS011;12100;44.384;20.272;2022-11-06T07:45:07;19.02;;;13.40;;
23838;SDS011;12100;44.384;20.272;2022-11-06T07:47:33;17.58;;;12.98;;
23838;SDS011;12100;44.384;20.272;2022-11-06T07:49:59;17.95;;;12.68;;
23838;SDS011;12100;44.384;20.272;2022-11-06T07:52:25;19.30;;;14.23;;
23838;SDS011;12100;44.384;20.272;2022-11-06T07:54:51;18.20;;;14.52;;
23838;SDS011;12100;44.384;20.272;2022-11-06T07:57:16;18.48;;;12.88;;
23838;SDS011;12100;44.384;20.272;2022-11-06T07:59:43;17.38;;;13.32;;
23838;SDS011;12100;44.384;20.272;2022-11-06T08:02:10;18.58;;;13.20;;
23838;SDS011;12100;44.384;20.272;2022-11-06T08:04:39;42.92;;;31.65;;
23838;SDS011;12100;44.384;20.272;2022-11-06T08:07:05;49.13;;;34.75;;
23838;SDS011;12100;44.384;20.272;2022-11-06T08:09:31;45.08;;;34.95;;
23838;SDS011;12100;44.384;20.272;2022-11-06T08:11:57;34.50;;;27.45;;
23838;SDS011;12100;44.384;20.272;2022-11-06T08:14:22;23.35;;;18.05;;
23838;SDS011;12100;44.384;20.272;2022-11-06T08:16:48;19.35;;;14.80;;
23838;SDS011;12100;44.384;20.272;2022-11-06T08:19:14;22.27;;;15.85;;
23838;SDS011;12100;44.384;20.272;2022-11-06T08:21:40;29.52;;;20.50;;
23838;SDS011;12100;44.384;20.272;2022-11-06T08:24:05;46.05;;;33.90;;
23838;SDS011;12100;44.384;20.272;2022-11-06T08:26:32;42.25;;;32.42;;
23838;SDS011;12100;44.384;20.272;2022-11-06T08:28:58;22.20;;;17.85;;
23838;SDS011;12100;44.384;20.272;2022-11-06T08:31:24;20.27;;;15.63;;
23838;SDS011;12100;44.384;20.272;2022-11-06T08:33:50;24.42;;;14.80;;
23838;SDS011;12100;44.384;20.272;2022-11-06T08:36:15;20.73;;;15.95;;
23838;SDS011;12100;44.384;20.272;2022-11-06T08:38:41;21.48;;;14.52;;
23838;SDS011;12100;44.384;20.272;2022-11-06T08:41:08;20.65;;;13.80;;
23838;SDS011;12100;44.384;20.272;2022-11-06T08:43:36;25.13;;;18.67;;
23838;SDS011;12100;44.384;20.272;2022-11-06T08:46:05;20.70;;;14.95;;
23838;SDS011;12100;44.384;20.272;2022-11-06T08:48:33;17.42;;;14.07;;
23838;SDS011;12100;44.384;20.272;2022-11-06T08:50:59;17.63;;;12.27;;
23838;SDS011;12100;44.384;20.272;2022-11-06T08:53:25;17.45;;;12.32;;
23838;SDS011;12100;44.384;20.272;2022-11-06T08:55:51;14.35;;;11.73;;
23838;SDS011;12100;44.384;20.272;2022-11-06T08:58:17;17.73;;;12.98;;
23838;SDS011;12100;44.384;20.272;2022-11-06T09:00:42;14.70;;;11.77;;
23838;SDS011;12100;44.384;20.272;2022-11-06T09:03:10;17.25;;;12.32;;
23838;SDS011;12100;44.384;20.272;2022-11-06T09:05:38;20.42;;;14.30;;
23838;SDS011;12100;44.384;20.272;2022-11-06T09:08:05;16.25;;;13.15;;
23838;SDS011;12100;44.384;20.272;2022-11-06T09:10:32;19.27;;;14.05;;
23838;SDS011;12100;44.384;20.272;2022-11-06T09:12:58;19.75;;;14.07;;
23838;SDS011;12100;44.384;20.272;2022-11-06T09:15:24;25.33;;;18.55;;
23838;SDS011;12100;44.384;20.272;2022-11-06T09:17:50;18.33;;;13.93;;
23838;SDS011;12100;44.384;20.272;2022-11-06T09:20:17;21.00;;;15.60;;
23838;SDS011;12100;44.384;20.272;2022-11-06T09:22:44;35.45;;;25.83;;
23838;SDS011;12100;44.384;20.272;2022-11-06T09:25:10;33.90;;;25.30;;
23838;SDS011;12100;44.384;20.272;2022-11-06T09:27:55;24.55;;;18.98;;
23838;SDS011;12100;44.384;20.272;2022-11-06T09:30:21;21.00;;;15.32;;
23838;SDS011;12100;44.384;20.272;2022-11-06T09:35:17;18.65;;;14.30;;
23838;SDS011;12100;44.384;20.272;2022-11-06T09:37:44;21.52;;;15.05;;
23838;SDS011;12100;44.384;20.272;2022-11-06T09:40:26;22.63;;;15.60;;
23838;SDS011;12100;44.384;20.272;2022-11-06T09:43:04;20.80;;;15.18;;
23838;SDS011;12100;44.384;20.272;2022-11-06T09:45:44;26.83;;;18.63;;
23838;SDS011;12100;44.384;20.272;2022-11-06T09:48:18;22.90;;;15.52;;
23838;SDS011;12100;44.384;20.272;2022-11-06T09:50:59;21.92;;;16.50;;
23838;SDS011;12100;44.384;20.272;2022-11-06T09:56:33;22.70;;;16.90;;
23838;SDS011;12100;44.384;20.272;2022-11-06T09:59:02;23.52;;;15.30;;
23838;SDS011;12100;44.384;20.272;2022-11-06T10:04:18;25.65;;;17.85;;
23838;SDS011;12100;44.384;20.272;2022-11-06T10:06:51;33.22;;;23.77;;
23838;SDS011;12100;44.384;20.272;2022-11-06T10:09:17;35.92;;;25.50;;
23838;SDS011;12100;44.384;20.272;2022-11-06T10:14:44;23.98;;;17.15;;
23838;SDS011;12100;44.384;20.272;2022-11-06T10:17:31;52.53;;;38.58;;
23838;SDS011;12100;44.384;20.272;2022-11-06T10:20:18;117.88;;;94.95;;
23838;SDS011;12100;44.384;20.272;2022-11-06T10:36:41;75.95;;;67.63;;
23838;SDS011;12100;44.384;20.272;2022-11-06T10:39:35;58.63;;;49.03;;
23838;SDS011;12100;44.384;20.272;2022-11-06T10:42:45;58.40;;;52.38;;
23838;SDS011;12100;44.384;20.272;2022-11-06T10:47:39;57.50;;;49.97;;
23838;SDS011;12100;44.384;20.272;2022-11-06T10:50:19;55.00;;;46.35;;
23838;SDS011;12100;44.384;20.272;2022-11-06T10:58:01;206.23;;;168.80;;
23838;SDS011;12100;44.384;20.272;2022-11-06T11:00:30;67.15;;;51.10;;
23838;SDS011;12100;44.384;20.272;2022-11-06T11:02:58;47.78;;;32.90;;
23838;SDS011;12100;44.384;20.272;2022-11-06T11:05:31;38.85;;;28.92;;
23838;SDS011;12100;44.384;20.272;2022-11-06T11:08:30;29.37;;;23.00;;
23838;SDS011;12100;44.384;20.272;2022-11-06T11:11:02;37.05;;;26.83;;
23838;SDS011;12100;44.384;20.272;2022-11-06T11:13:30;28.30;;;21.58;;
23838;SDS011;12100;44.384;20.272;2022-11-06T11:15:56;36.65;;;26.80;;
23838;SDS011;12100;44.384;20.272;2022-11-06T11:18:23;65.50;;;43.50;;
23838;SDS011;12100;44.384;20.272;2022-11-06T11:21:05;35.97;;;27.23;;
23838;SDS011;12100;44.384;20.272;2022-11-06T11:23:43;35.55;;;24.58;;
23838;SDS011;12100;44.384;20.272;2022-11-06T11:26:20;40.80;;;30.92;;
23838;SDS011;12100;44.384;20.272;2022-11-06T11:28:59;35.05;;;25.88;;
23838;SDS011;12100;44.384;20.272;2022-11-06T11:31:28;69.88;;;48.28;;
23838;SDS011;12100;44.384;20.272;2022-11-06T11:33:57;76.78;;;46.88;;
23838;SDS011;12100;44.384;20.272;2022-11-06T11:39:15;45.47;;;29.50;;
23838;SDS011;12100;44.384;20.272;2022-11-06T11:41:42;48.92;;;32.78;;
23838;SDS011;12100;44.384;20.272;2022-11-06T11:46:48;77.70;;;50.05;;
23838;SDS011;12100;44.384;20.272;2022-11-06T11:51:58;54.00;;;39.65;;
23838;SDS011;12100;44.384;20.272;2022-11-06T11:54:26;54.15;;;46.75;;
23838;SDS011;12100;44.384;20.272;2022-11-06T11:57:02;27.48;;;19.00;;
23838;SDS011;12100;44.384;20.272;2022-11-06T11:59:31;23.38;;;17.80;;
23838;SDS011;12100;44.384;20.272;2022-11-06T12:05:00;26.27;;;20.02;;
23838;SDS011;12100;44.384;20.272;2022-11-06T12:07:31;30.60;;;21.85;;
23838;SDS011;12100;44.384;20.272;2022-11-06T12:10:00;35.22;;;27.67;;
23838;SDS011;12100;44.384;20.272;2022-11-06T12:12:49;49.63;;;37.75;;
23838;SDS011;12100;44.384;20.272;2022-11-06T12:15:21;45.40;;;35.10;;
23838;SDS011;12100;44.384;20.272;2022-11-06T12:17:56;129.60;;;87.50;;
23838;SDS011;12100;44.384;20.272;2022-11-06T12:20:31;100.05;;;72.75;;
23838;SDS011;12100;44.384;20.272;2022-11-06T12:23:02;47.33;;;33.17;;
23838;SDS011;12100;44.384;20.272;2022-11-06T12:25:32;49.72;;;38.53;;
23838;SDS011;12100;44.384;20.272;2022-11-06T12:28:03;47.53;;;36.10;;
23838;SDS011;12100;44.384;20.272;2022-11-06T12:30:37;64.22;;;44.45;;
23838;SDS011;12100;44.384;20.272;2022-11-06T12:33:16;40.38;;;28.35;;
23838;SDS011;12100;44.384;20.272;2022-11-06T12:35:47;57.90;;;41.83;;
23838;SDS011;12100;44.384;20.272;2022-11-06T12:41:39;42.38;;;29.85;;
23838;SDS011;12100;44.384;20.272;2022-11-06T12:44:10;47.85;;;31.70;;
23838;SDS011;12100;44.384;20.272;2022-11-06T12:54:39;42.30;;;27.05;;
23838;SDS011;12100;44.384;20.272;2022-11-06T12:57:31;43.33;;;30.70;;
23838;SDS011;12100;44.384;20.272;2022-11-06T13:11:03;72.28;;;50.75;;
23838;SDS011;12100;44.384;20.272;2022-11-06T13:19:40;87.28;;;61.70;;
23838;SDS011;12100;44.384;20.272;2022-11-06T13:23:15;86.72;;;65.03;;
23838;SDS011;12100;44.384;20.272;2022-11-06T13:25:16;64.35;;;45.95;;
23838;SDS011;12100;44.384;20.272;2022-11-06T13:27:55;78.25;;;54.10;;
23838;SDS011;12100;44.384;20.272;2022-11-06T13:30:29;100.10;;;80.82;;
23838;SDS011;12100;44.384;20.272;2022-11-06T13:33:16;95.68;;;77.55;;
23838;SDS011;12100;44.384;20.272;2022-11-06T13:35:48;59.20;;;38.70;;
23838;SDS011;12100;44.384;20.272;2022-11-06T13:38:16;55.00;;;32.33;;
23838;SDS011;12100;44.384;20.272;2022-11-06T13:41:07;50.22;;;32.25;;
23838;SDS011;12100;44.384;20.272;2022-11-06T13:43:44;55.28;;;35.50;;
23838;SDS011;12100;44.384;20.272;2022-11-06T13:46:20;52.05;;;31.77;;
23838;SDS011;12100;44.384;20.272;2022-11-06T13:51:57;74.80;;;41.20;;
23838;SDS011;12100;44.384;20.272;2022-11-06T13:54:57;75.78;;;41.95;;
23838;SDS011;12100;44.384;20.272;2022-11-06T14:06:07;93.68;;;52.15;;
23838;SDS011;12100;44.384;20.272;2022-11-06T14:08:46;90.72;;;48.75;;
23838;SDS011;12100;44.384;20.272;2022-11-06T14:11:17;113.43;;;71.75;;
23838;SDS011;12100;44.384;20.272;2022-11-06T14:18:59;162.75;;;93.30;;
23838;SDS011;12100;44.384;20.272;2022-11-06T14:21:45;147.55;;;83.95;;
23838;SDS011;12100;44.384;20.272;2022-11-06T14:26:44;69.25;;;44.28;;
23838;SDS011;12100;44.384;20.272;2022-11-06T14:34:42;77.82;;;48.63;;
23838;SDS011;12100;44.384;20.272;2022-11-06T14:52:55;60.38;;;34.20;;
23838;SDS011;12100;44.384;20.272;2022-11-06T14:55:27;73.37;;;47.23;;
23838;SDS011;12100;44.384;20.272;2022-11-06T14:58:20;65.20;;;41.30;;
23838;SDS011;12100;44.384;20.272;2022-11-06T15:00:51;65.43;;;39.75;;
23838;SDS011;12100;44.384;20.272;2022-11-06T15:03:25;79.43;;;46.72;;
23838;SDS011;12100;44.384;20.272;2022-11-06T15:19:17;71.80;;;37.38;;
23838;SDS011;12100;44.384;20.272;2022-11-06T15:22:30;68.40;;;39.38;;
23838;SDS011;12100;44.384;20.272;2022-11-06T15:27:23;70.55;;;41.03;;
23838;SDS011;12100;44.384;20.272;2022-11-06T15:29:53;71.55;;;40.05;;
23838;SDS011;12100;44.384;20.272;2022-11-06T15:32:22;53.42;;;31.30;;
23838;SDS011;12100;44.384;20.272;2022-11-06T15:35:02;55.95;;;31.52;;
23838;SDS011;12100;44.384;20.272;2022-11-06T15:37:29;61.50;;;36.20;;
23838;SDS011;12100;44.384;20.272;2022-11-06T15:40:02;55.70;;;31.55;;
23838;SDS011;12100;44.384;20.272;2022-11-06T15:42:29;53.33;;;31.52;;
23838;SDS011;12100;44.384;20.272;2022-11-06T15:45:08;65.72;;;42.10;;
23838;SDS011;12100;44.384;20.272;2022-11-06T15:47:42;76.82;;;47.88;;
23838;SDS011;12100;44.384;20.272;2022-11-06T15:50:26;62.33;;;38.25;;
23838;SDS011;12100;44.384;20.272;2022-11-06T15:52:53;84.68;;;52.72;;
23838;SDS011;12100;44.384;20.272;2022-11-06T15:55:33;95.72;;;63.38;;
23838;SDS011;12100;44.384;20.272;2022-11-06T15:58:06;52.78;;;33.13;;
23838;SDS011;12100;44.384;20.272;2022-11-06T16:00:48;55.05;;;33.53;;
23838;SDS011;12100;44.384;20.272;2022-11-06T16:03:18;54.78;;;32.13;;
23838;SDS011;12100;44.384;20.272;2022-11-06T16:05:46;43.10;;;27.08;;
23838;SDS011;12100;44.384;20.272;2022-11-06T16:08:13;50.90;;;29.05;;
23838;SDS011;12100;44.384;20.272;2022-11-06T16:10:41;57.10;;;32.20;;
23838;SDS011;12100;44.384;20.272;2022-11-06T16:13:11;49.28;;;30.95;;
23838;SDS011;12100;44.384;20.272;2022-11-06T16:23:41;64.95;;;41.38;;
23838;SDS011;12100;44.384;20.272;2022-11-06T16:26:09;54.97;;;36.08;;
23838;SDS011;12100;44.384;20.272;2022-11-06T16:28:43;51.47;;;31.20;;
23838;SDS011;12100;44.384;20.272;2022-11-06T16:31:14;59.67;;;33.08;;
23838;SDS011;12100;44.384;20.272;2022-11-06T16:33:54;51.67;;;33.67;;
23838;SDS011;12100;44.384;20.272;2022-11-06T16:36:29;87.85;;;58.55;;
23838;SDS011;12100;44.384;20.272;2022-11-06T16:47:09;45.95;;;27.58;;
23838;SDS011;12100;44.384;20.272;2022-11-06T16:49:37;43.60;;;27.50;;
23838;SDS011;12100;44.384;20.272;2022-11-06T16:52:19;45.60;;;27.58;;
23838;SDS011;12100;44.384;20.272;2022-11-06T16:55:00;116.28;;;75.32;;
23838;SDS011;12100;44.384;20.272;2022-11-06T16:58:03;102.57;;;64.68;;
23838;SDS011;12100;44.384;20.272;2022-11-06T17:00:29;143.93;;;103.43;;
23838;SDS011;12100;44.384;20.272;2022-11-06T17:02:58;97.07;;;68.75;;
23838;SDS011;12100;44.384;20.272;2022-11-06T17:05:35;80.32;;;57.25;;
23838;SDS011;12100;44.384;20.272;2022-11-06T17:13:19;69.45;;;53.70;;
23838;SDS011;12100;44.384;20.272;2022-11-06T17:18:28;45.28;;;32.90;;
23838;SDS011;12100;44.384;20.272;2022-11-06T17:21:04;48.38;;;30.08;;
23838;SDS011;12100;44.384;20.272;2022-11-06T17:23:32;75.07;;;53.88;;
23838;SDS011;12100;44.384;20.272;2022-11-06T17:26:02;81.93;;;51.95;;
23838;SDS011;12100;44.384;20.272;2022-11-06T17:28:31;60.60;;;45.33;;
23838;SDS011;12100;44.384;20.272;2022-11-06T17:30:57;49.15;;;33.70;;
23838;SDS011;12100;44.384;20.272;2022-11-06T17:33:23;41.38;;;26.42;;
23838;SDS011;12100;44.384;20.272;2022-11-06T17:35:48;59.88;;;42.83;;
23838;SDS011;12100;44.384;20.272;2022-11-06T17:38:15;41.70;;;29.45;;
23838;SDS011;12100;44.384;20.272;2022-11-06T17:40:41;38.70;;;27.33;;